createdAt,value
2018-11-05T00:00:25.459Z,17.42
2018-11-05T00:02:54.229Z,17.05
2018-11-05T00:05:23.383Z,16.23
2018-11-05T00:07:52.563Z,14.00
2018-11-05T00:10:21.543Z,13.80
2018-11-05T00:12:50.662Z,12.28
2018-11-05T00:15:20.092Z,18.25
2018-11-05T00:17:49.335Z,17.15
2018-11-05T00:20:18.634Z,18.67
2018-11-05T00:22:48.078Z,15.70
2018-11-05T00:25:17.402Z,17.17
2018-11-05T00:27:46.633Z,21.73
2018-11-05T00:30:16.431Z,18.27
2018-11-05T00:32:45.567Z,15.95
2018-11-05T00:35:14.835Z,18.65
2018-11-05T00:37:44.076Z,19.07
2018-11-05T00:40:14.155Z,18.35
2018-11-05T00:42:44.050Z,21.70
2018-11-05T00:45:13.565Z,22.73
2018-11-05T00:47:43.287Z,20.55
2018-11-05T00:50:14.081Z,24.45
2018-11-05T00:52:43.354Z,27.70
2018-11-05T00:55:13.190Z,21.10
2018-11-05T00:57:42.251Z,22.82
2018-11-05T01:00:17.181Z,19.35
2018-11-05T01:02:46.202Z,28.42
2018-11-05T01:05:16.494Z,29.37
2018-11-05T01:07:46.283Z,25.85
2018-11-05T01:10:16.219Z,31.15
2018-11-05T01:12:45.171Z,26.30
2018-11-05T01:15:16.614Z,27.55
2018-11-05T01:17:45.678Z,27.42
2018-11-05T01:20:15.565Z,31.82
2018-11-05T01:22:44.627Z,31.65
2018-11-05T01:25:13.718Z,35.63
2018-11-05T01:27:42.883Z,35.70
2018-11-05T01:30:13.748Z,35.48
2018-11-05T01:32:42.819Z,31.33
2018-11-05T01:35:13.065Z,25.90
2018-11-05T01:37:42.575Z,26.82
2018-11-05T01:40:14.371Z,33.90
2018-11-05T01:42:43.987Z,30.10
2018-11-05T01:45:14.071Z,32.63
2018-11-05T01:47:43.618Z,29.65
2018-11-05T01:50:14.340Z,33.78
2018-11-05T01:52:44.084Z,29.90
2018-11-05T01:55:13.364Z,33.73
2018-11-05T01:57:42.870Z,31.07
2018-11-05T02:00:14.708Z,28.95
2018-11-05T02:02:44.638Z,30.77
2018-11-05T02:05:13.873Z,33.25
2018-11-05T02:07:44.203Z,33.50
2018-11-05T02:10:16.868Z,33.00
2018-11-05T02:12:46.188Z,33.50
2018-11-05T02:15:15.469Z,31.10
2018-11-05T02:17:46.077Z,30.48
2018-11-05T02:20:16.135Z,31.50
2018-11-05T02:22:45.054Z,29.32
2018-11-05T02:25:14.846Z,34.67
2018-11-05T02:27:44.064Z,26.80
2018-11-05T02:30:16.419Z,24.45
2018-11-05T02:32:45.907Z,23.18
2018-11-05T02:35:15.863Z,23.38
2018-11-05T02:37:45.724Z,19.10
2018-11-05T02:40:15.913Z,24.57
2018-11-05T02:42:45.459Z,21.35
2018-11-05T02:45:15.519Z,23.30
2018-11-05T02:47:44.602Z,19.55
2018-11-05T02:50:14.486Z,20.02
2018-11-05T02:52:44.927Z,22.27
2018-11-05T02:55:13.974Z,29.05
2018-11-05T02:57:43.030Z,22.10
2018-11-05T03:00:14.577Z,19.40
2018-11-05T03:02:43.723Z,18.27
2018-11-05T03:05:14.842Z,25.50
2018-11-05T03:07:44.945Z,16.52
2018-11-05T03:10:14.478Z,20.77
2018-11-05T03:12:44.302Z,19.35
2018-11-05T03:15:14.731Z,23.30
2018-11-05T03:17:43.814Z,27.67
2018-11-05T03:20:14.018Z,21.00
2018-11-05T03:22:43.903Z,23.87
2018-11-05T03:25:13.130Z,27.30
2018-11-05T03:27:42.534Z,27.35
2018-11-05T03:30:14.115Z,23.65
2018-11-05T03:32:43.285Z,28.30
2018-11-05T03:35:13.193Z,25.70
2018-11-05T03:37:43.827Z,28.02
2018-11-05T03:40:13.642Z,31.90
2018-11-05T03:42:43.300Z,29.10
2018-11-05T03:45:13.967Z,29.98
2018-11-05T03:47:43.193Z,32.40
2018-11-05T03:50:15.537Z,34.35
2018-11-05T03:52:45.262Z,36.30
2018-11-05T03:55:15.325Z,38.98
2018-11-05T03:57:44.614Z,34.75
2018-11-05T04:00:15.282Z,31.93
2018-11-05T04:02:44.517Z,35.40
2018-11-05T04:05:13.763Z,37.75
2018-11-05T04:07:42.829Z,38.15
2018-11-05T04:10:12.846Z,37.93
2018-11-05T04:12:42.205Z,34.67
2018-11-05T04:15:11.617Z,35.00
2018-11-05T04:17:40.651Z,41.35
2018-11-05T04:20:11.829Z,47.70
2018-11-05T04:22:41.295Z,46.25
2018-11-05T04:25:10.443Z,48.17
2018-11-05T04:27:39.610Z,49.15
2018-11-05T04:30:10.997Z,46.48
2018-11-05T04:32:40.457Z,43.63
2018-11-05T04:35:10.004Z,42.58
2018-11-05T04:37:39.131Z,38.28
2018-11-05T04:40:09.783Z,39.55
2018-11-05T04:42:38.913Z,37.65
2018-11-05T04:45:09.403Z,40.38
2018-11-05T04:47:38.848Z,41.75
2018-11-05T04:50:09.334Z,45.05
2018-11-05T04:52:38.960Z,39.20
2018-11-05T04:55:08.500Z,38.70
2018-11-05T04:57:37.782Z,41.13
2018-11-05T05:00:12.368Z,36.90
2018-11-05T05:02:42.519Z,40.55
2018-11-05T05:05:12.946Z,35.03
2018-11-05T05:07:42.599Z,38.23
2018-11-05T05:10:12.072Z,37.78
2018-11-05T05:12:42.167Z,41.20
2018-11-05T05:15:11.958Z,45.83
2018-11-05T05:17:41.504Z,34.33
2018-11-05T05:20:13.275Z,35.65
2018-11-05T05:22:42.908Z,43.83
2018-11-05T05:25:11.960Z,48.02
2018-11-05T05:27:41.606Z,38.53
2018-11-05T05:30:13.570Z,40.28
2018-11-05T05:32:43.054Z,43.33
2018-11-05T05:35:12.410Z,49.53
2018-11-05T05:37:42.230Z,53.40
2018-11-05T05:40:11.500Z,47.48
2018-11-05T05:42:41.281Z,39.80
2018-11-05T05:45:11.594Z,39.63
2018-11-05T05:47:41.131Z,40.60
2018-11-05T05:50:16.725Z,30.65
2018-11-05T05:52:47.300Z,42.93
2018-11-05T05:57:57.290Z,35.78
2018-11-05T06:00:26.451Z,37.58
2018-11-05T06:02:55.447Z,35.55
2018-11-05T06:05:24.574Z,48.92
2018-11-05T06:07:53.747Z,45.60
2018-11-05T06:10:23.129Z,39.35
2018-11-05T06:12:52.574Z,37.30
2018-11-05T06:15:21.662Z,35.70
2018-11-05T06:17:50.848Z,34.53
2018-11-05T06:20:21.046Z,39.10
2018-11-05T06:22:50.634Z,54.33
2018-11-05T06:25:19.793Z,40.92
2018-11-05T06:27:49.108Z,35.50
2018-11-05T06:30:20.496Z,35.05
2018-11-05T06:32:50.570Z,33.35
2018-11-05T06:35:20.297Z,35.35
2018-11-05T06:37:49.447Z,36.25
2018-11-05T06:40:19.996Z,31.85
2018-11-05T06:42:49.293Z,39.10
2018-11-05T06:45:19.673Z,32.70
2018-11-05T06:47:49.576Z,38.15
2018-11-05T06:50:21.698Z,34.88
2018-11-05T06:52:51.170Z,51.90
2018-11-05T06:55:20.416Z,49.10
2018-11-05T06:57:49.859Z,56.02
2018-11-05T07:00:21.288Z,51.25
2018-11-05T07:02:50.467Z,52.03
2018-11-05T07:05:19.818Z,52.62
2018-11-05T07:07:49.372Z,46.98
2018-11-05T07:10:19.020Z,57.05
2018-11-05T07:12:48.191Z,46.28
2018-11-05T07:15:18.574Z,43.80
2018-11-05T07:17:48.558Z,43.68
2018-11-05T07:20:18.841Z,48.50
2018-11-05T07:22:49.279Z,43.70
2018-11-05T07:25:18.379Z,41.75
2018-11-05T07:27:47.623Z,42.55
2018-11-05T07:30:19.155Z,37.40
2018-11-05T07:32:49.154Z,41.45
2018-11-05T07:35:18.150Z,40.50
2018-11-05T07:37:47.670Z,35.68
2018-11-05T07:40:17.758Z,33.18
2018-11-05T07:42:47.005Z,30.80
2018-11-05T07:45:18.303Z,34.03
2018-11-05T07:47:47.825Z,35.03
2018-11-05T07:50:18.098Z,28.17
2018-11-05T07:52:47.493Z,27.62
2018-11-05T07:55:17.578Z,36.88
2018-11-05T07:57:47.590Z,32.15
2018-11-05T08:00:22.459Z,72.12
2018-11-05T08:02:53.302Z,30.25
2018-11-05T08:05:23.126Z,97.50
2018-11-05T08:07:52.431Z,32.40
2018-11-05T08:10:21.611Z,33.40
2018-11-05T08:12:50.942Z,32.25
2018-11-05T08:15:21.730Z,38.98
2018-11-05T08:17:51.733Z,23.70
2018-11-05T08:20:20.878Z,17.73
2018-11-05T08:22:50.484Z,17.35
2018-11-05T08:25:19.586Z,16.27
2018-11-05T08:27:49.455Z,18.10
2018-11-05T08:30:21.190Z,16.35
2018-11-05T08:32:50.288Z,18.42
2018-11-05T08:35:19.622Z,18.23
2018-11-05T08:37:49.118Z,15.83
2018-11-05T08:40:21.311Z,16.67
2018-11-05T08:42:51.486Z,19.17
2018-11-05T08:45:21.855Z,17.35
2018-11-05T08:47:51.106Z,16.15
2018-11-05T08:50:21.714Z,20.65
2018-11-05T08:52:50.870Z,19.25
2018-11-05T08:55:21.379Z,23.95
2018-11-05T08:57:50.864Z,18.50
2018-11-05T09:00:25.133Z,16.73
2018-11-05T09:02:55.048Z,15.00
2018-11-05T09:05:24.310Z,17.40
2018-11-05T09:07:54.300Z,20.32
2018-11-05T09:10:23.921Z,23.73
2018-11-05T09:12:52.986Z,19.85
2018-11-05T09:15:22.933Z,16.90
2018-11-05T09:17:52.197Z,18.87
2018-11-05T09:20:21.379Z,17.05
2018-11-05T09:22:51.185Z,17.12
2018-11-05T09:25:20.589Z,17.42
2018-11-05T09:27:50.128Z,16.17
2018-11-05T09:30:20.689Z,17.05
2018-11-05T09:32:50.735Z,15.35
2018-11-05T09:35:19.949Z,17.57
2018-11-05T09:37:49.031Z,16.70
2018-11-05T09:40:20.609Z,17.98
2018-11-05T09:42:50.344Z,15.13
2018-11-05T09:45:23.102Z,20.95
2018-11-05T09:47:52.490Z,14.63
2018-11-05T09:50:21.945Z,24.27
2018-11-05T09:52:51.233Z,14.80
2018-11-05T09:55:20.431Z,16.27
2018-11-05T09:57:49.555Z,17.90
2018-11-05T10:00:20.481Z,22.67
2018-11-05T10:02:54.795Z,19.57
2018-11-05T10:05:24.226Z,16.97
2018-11-05T10:07:53.358Z,20.50
2018-11-05T10:10:22.660Z,19.30
2018-11-05T10:12:52.135Z,13.53
2018-11-05T10:15:21.259Z,18.20
2018-11-05T10:17:50.484Z,19.27
2018-11-05T10:20:24.308Z,20.92
2018-11-05T10:22:53.910Z,16.25
2018-11-05T10:25:23.089Z,14.50
2018-11-05T10:27:52.840Z,17.42
2018-11-05T10:30:24.256Z,14.65
2018-11-05T10:32:53.784Z,15.58
2018-11-05T10:35:27.958Z,17.50
2018-11-05T10:37:57.312Z,13.40
2018-11-05T10:40:26.749Z,12.35
2018-11-05T10:42:55.818Z,17.15
2018-11-05T10:45:25.007Z,19.30
2018-11-05T10:47:54.275Z,22.87
2018-11-05T10:50:23.727Z,20.72
2018-11-05T10:52:53.110Z,18.07
2018-11-05T10:55:22.135Z,17.25
2018-11-05T10:57:51.072Z,13.05
2018-11-05T11:00:26.426Z,12.95
2018-11-05T11:03:00.422Z,14.75
2018-11-05T11:05:30.687Z,14.05
2018-11-05T11:08:00.515Z,14.90
2018-11-05T11:10:30.289Z,12.82
2018-11-05T11:13:00.209Z,14.78
2018-11-05T11:15:29.500Z,11.00
2018-11-05T11:17:58.799Z,14.98
2018-11-05T11:20:28.367Z,12.20
2018-11-05T11:22:57.313Z,13.43
2018-11-05T11:25:26.299Z,18.60
2018-11-05T11:27:55.652Z,12.65
2018-11-05T11:30:24.699Z,10.93
2018-11-05T11:32:54.094Z,11.88
2018-11-05T11:35:23.501Z,12.00
2018-11-05T11:37:52.389Z,13.75
2018-11-05T11:40:22.960Z,12.98
2018-11-05T11:42:51.911Z,13.45
2018-11-05T11:45:21.937Z,10.93
2018-11-05T11:47:50.922Z,14.70
2018-11-05T11:50:20.153Z,11.83
2018-11-05T11:52:49.751Z,11.22
2018-11-05T11:55:19.796Z,10.15
2018-11-05T11:57:48.886Z,10.20
2018-11-05T12:00:19.982Z,8.85
2018-11-05T12:02:50.157Z,10.38
2018-11-05T12:05:19.449Z,7.75
2018-11-05T12:07:48.726Z,9.50
2018-11-05T12:10:19.464Z,6.92
2018-11-05T12:12:48.559Z,9.85
2018-11-05T12:15:18.364Z,8.20
2018-11-05T12:17:48.303Z,9.65
2018-11-05T12:20:18.703Z,10.50
2018-11-05T12:22:48.201Z,8.05
2018-11-05T12:25:17.562Z,6.30
2018-11-05T12:27:46.817Z,6.95
2018-11-05T12:30:18.015Z,6.87
2018-11-05T12:32:48.119Z,10.48
2018-11-05T12:35:17.288Z,9.35
2018-11-05T12:37:47.391Z,8.53
2018-11-05T12:40:17.367Z,10.93
2018-11-05T12:42:47.942Z,8.48
2018-11-05T12:45:17.391Z,8.03
2018-11-05T12:47:46.735Z,10.78
2018-11-05T12:50:21.292Z,8.70
2018-11-05T12:52:51.234Z,9.93
2018-11-05T12:55:20.298Z,7.03
2018-11-05T12:57:50.031Z,9.08
2018-11-05T13:00:21.445Z,9.03
2018-11-05T13:02:59.671Z,6.58
2018-11-05T13:05:30.227Z,6.33
2018-11-05T13:07:59.304Z,10.48
2018-11-05T13:10:28.395Z,8.23
2018-11-05T13:12:57.810Z,6.97
2018-11-05T13:15:27.082Z,5.58
2018-11-05T13:17:55.896Z,10.50
2018-11-05T13:20:25.376Z,6.50
2018-11-05T13:22:54.390Z,8.48
2018-11-05T13:25:23.287Z,3.65
2018-11-05T13:27:52.966Z,8.23
2018-11-05T13:30:21.762Z,4.30
2018-11-05T13:32:50.695Z,4.08
2018-11-05T13:35:21.147Z,3.33
2018-11-05T13:37:50.763Z,7.47
2018-11-05T13:40:20.516Z,3.67
2018-11-05T13:42:50.061Z,8.73
2018-11-05T13:45:19.764Z,4.28
2018-11-05T13:47:48.985Z,3.77
2018-11-05T13:50:18.204Z,2.85
2018-11-05T13:52:47.643Z,4.72
2018-11-05T13:55:17.258Z,5.10
2018-11-05T13:57:47.548Z,3.65
2018-11-05T14:00:17.937Z,4.28
2018-11-05T14:02:47.235Z,7.37
2018-11-05T14:05:16.323Z,5.75
2018-11-05T14:07:45.503Z,5.60
2018-11-05T14:10:18.090Z,3.87
2018-11-05T14:12:47.396Z,3.52
2018-11-05T14:15:16.832Z,10.25
2018-11-05T14:17:46.530Z,6.35
2018-11-05T14:20:16.520Z,7.25
2018-11-05T14:22:45.429Z,5.03
2018-11-05T14:25:16.022Z,5.72
2018-11-05T14:27:46.726Z,5.33
2018-11-05T14:30:15.872Z,9.18
2018-11-05T14:32:45.984Z,5.33
2018-11-05T14:35:14.990Z,4.75
2018-11-05T14:37:44.232Z,5.47
2018-11-05T14:40:14.663Z,6.60
2018-11-05T14:42:44.429Z,7.15
2018-11-05T14:45:18.239Z,5.40
2018-11-05T14:47:47.986Z,13.45
2018-11-05T14:50:23.715Z,10.58
2018-11-05T14:52:52.709Z,6.50
2018-11-05T14:55:21.871Z,9.95
2018-11-05T14:57:52.149Z,10.28
2018-11-05T15:00:28.405Z,9.55
2018-11-05T15:02:58.083Z,5.97
2018-11-05T15:05:27.214Z,8.63
2018-11-05T15:07:56.306Z,6.30
2018-11-05T15:10:26.114Z,7.05
2018-11-05T15:12:55.411Z,12.68
2018-11-05T15:15:24.520Z,6.12
2018-11-05T15:17:53.904Z,6.00
2018-11-05T15:20:23.929Z,3.42
2018-11-05T15:22:52.935Z,5.53
2018-11-05T15:25:22.566Z,10.20
2018-11-05T15:27:52.448Z,6.12
2018-11-05T15:30:22.890Z,9.70
2018-11-05T15:32:52.274Z,9.75
2018-11-05T15:35:21.594Z,7.00
2018-11-05T15:37:51.411Z,10.53
2018-11-05T15:40:21.959Z,8.68
2018-11-05T15:42:50.698Z,11.35
2018-11-05T15:45:20.999Z,8.63
2018-11-05T15:47:50.364Z,8.30
2018-11-05T15:50:20.597Z,3.65
2018-11-05T15:52:50.090Z,8.43
2018-11-05T15:55:18.958Z,4.70
2018-11-05T15:57:47.940Z,5.15
2018-11-05T16:00:22.336Z,5.97
2018-11-05T16:02:53.946Z,5.97
2018-11-05T16:05:23.547Z,6.35
2018-11-05T16:07:52.651Z,4.58
2018-11-05T16:10:21.947Z,4.10
2018-11-05T16:12:51.327Z,7.28
2018-11-05T16:15:20.362Z,3.80
2018-11-05T16:17:49.963Z,3.98
2018-11-05T16:20:20.342Z,5.53
2018-11-05T16:22:50.248Z,4.90
2018-11-05T16:25:19.391Z,7.37
2018-11-05T16:27:48.527Z,3.70
2018-11-05T16:30:18.734Z,5.37
2018-11-05T16:32:48.464Z,6.30
2018-11-05T16:35:17.598Z,6.37
2018-11-05T16:37:46.842Z,6.70
2018-11-05T16:40:16.772Z,7.25
2018-11-05T16:42:46.951Z,7.03
2018-11-05T16:45:15.961Z,3.95
2018-11-05T16:47:45.155Z,4.00
2018-11-05T16:50:26.110Z,4.17
2018-11-05T16:52:55.371Z,7.78
2018-11-05T16:55:24.417Z,7.12
2018-11-05T16:57:53.596Z,5.95
2018-11-05T17:00:22.707Z,3.72
2018-11-05T17:02:51.779Z,8.40
2018-11-05T17:05:21.162Z,6.85
2018-11-05T17:07:50.128Z,4.12
2018-11-05T17:10:19.208Z,10.10
2018-11-05T17:12:48.108Z,14.93
2018-11-05T17:15:18.140Z,16.97
2018-11-05T17:17:47.517Z,15.32
2018-11-05T17:20:18.336Z,25.57
2018-11-05T17:22:47.552Z,22.02
2018-11-05T17:25:16.924Z,33.60
2018-11-05T17:27:46.691Z,28.57
2018-11-05T17:30:17.963Z,26.93
2018-11-05T17:32:47.121Z,27.58
2018-11-05T17:35:16.642Z,26.42
2018-11-05T17:37:46.414Z,21.87
2018-11-05T17:40:16.663Z,24.82
2018-11-05T17:42:45.947Z,25.02
2018-11-05T17:45:16.281Z,20.92
2018-11-05T17:47:45.387Z,24.10
2018-11-05T17:50:16.226Z,21.45
2018-11-05T17:52:45.410Z,19.65
2018-11-05T17:55:14.638Z,18.42
2018-11-05T17:57:45.154Z,22.90
2018-11-05T18:00:17.571Z,21.93
2018-11-05T18:02:47.096Z,26.42
2018-11-05T18:05:16.692Z,21.35
2018-11-05T18:07:45.731Z,20.55
2018-11-05T18:10:14.611Z,24.07
2018-11-05T18:12:44.215Z,28.45
2018-11-05T18:15:13.854Z,24.40
2018-11-05T18:17:44.259Z,24.57
2018-11-05T18:20:15.471Z,24.43
2018-11-05T18:22:44.858Z,21.77
2018-11-05T18:25:16.273Z,21.17
2018-11-05T18:27:45.610Z,23.87
2018-11-05T18:30:15.158Z,20.32
2018-11-05T18:32:44.277Z,18.57
2018-11-05T18:35:14.193Z,22.70
2018-11-05T18:37:44.328Z,21.27
2018-11-05T18:40:14.623Z,23.00
2018-11-05T18:42:44.551Z,18.98
2018-11-05T18:45:13.702Z,18.70
2018-11-05T18:47:42.634Z,17.75
2018-11-05T18:50:13.305Z,21.17
2018-11-05T18:52:42.689Z,20.15
2018-11-05T18:55:13.383Z,16.82
2018-11-05T18:57:42.426Z,15.95
2018-11-05T19:00:25.342Z,20.00
2018-11-05T19:02:55.801Z,19.42
2018-11-05T19:05:25.743Z,14.55
2018-11-05T19:07:55.295Z,18.15
2018-11-05T19:10:24.395Z,22.93
2018-11-05T19:12:54.103Z,14.25
2018-11-05T19:15:23.173Z,20.27
2018-11-05T19:17:52.383Z,17.00
2018-11-05T19:20:21.807Z,19.10
2018-11-05T19:22:51.312Z,18.17
2018-11-05T19:25:20.681Z,19.98
2018-11-05T19:27:49.892Z,17.70
2018-11-05T19:30:24.076Z,19.52
2018-11-05T19:32:53.203Z,18.70
2018-11-05T19:35:22.259Z,17.77
2018-11-05T19:37:51.766Z,15.43
2018-11-05T19:40:21.541Z,16.77
2018-11-05T19:42:50.930Z,17.27
2018-11-05T19:45:21.269Z,16.07
2018-11-05T19:47:50.435Z,23.90
2018-11-05T19:50:20.578Z,19.48
2018-11-05T19:52:50.311Z,21.60
2018-11-05T19:55:19.971Z,21.05
2018-11-05T19:57:50.291Z,23.40
2018-11-05T20:00:22.082Z,19.67
2018-11-05T20:02:51.291Z,24.05
2018-11-05T20:05:20.297Z,25.68
2018-11-05T20:07:50.783Z,22.85
2018-11-05T20:10:19.812Z,24.57
2018-11-05T20:12:49.012Z,26.02
2018-11-05T20:15:18.455Z,26.40
2018-11-05T20:17:48.330Z,20.00
2018-11-05T20:20:18.550Z,26.75
2018-11-05T20:22:47.623Z,31.62
2018-11-05T20:25:16.638Z,32.23
2018-11-05T20:27:45.886Z,30.02
2018-11-05T20:30:18.073Z,29.63
2018-11-05T20:32:48.982Z,29.12
2018-11-05T20:35:17.340Z,25.40
2018-11-05T20:37:46.230Z,29.60
2018-11-05T20:40:16.638Z,30.90
2018-11-05T20:42:46.796Z,34.70
2018-11-05T20:45:16.832Z,31.12
2018-11-05T20:47:45.786Z,28.05
2018-11-05T20:50:15.647Z,30.97
2018-11-05T20:52:44.765Z,33.02
2018-11-05T20:55:14.999Z,34.98
2018-11-05T20:57:44.410Z,36.08
2018-11-05T21:00:14.945Z,31.90
2018-11-05T21:02:43.978Z,37.65
2018-11-05T21:05:13.106Z,33.92
2018-11-05T21:07:42.999Z,40.48
2018-11-05T21:10:13.569Z,35.17
2018-11-05T21:12:43.090Z,38.65
2018-11-05T21:15:15.447Z,40.95
2018-11-05T21:17:44.878Z,40.30
2018-11-05T21:20:14.290Z,40.23
2018-11-05T21:22:44.044Z,41.70
2018-11-05T21:25:13.297Z,42.17
2018-11-05T21:27:42.914Z,43.80
2018-11-05T21:30:14.033Z,39.10
2018-11-05T21:32:43.102Z,46.23
2018-11-05T21:35:14.225Z,46.08
2018-11-05T21:37:43.615Z,39.53
2018-11-05T21:40:14.050Z,45.67
2018-11-05T21:42:43.294Z,45.10
2018-11-05T21:45:13.627Z,47.88
2018-11-05T21:47:43.129Z,46.37
2018-11-05T21:50:14.009Z,48.00
2018-11-05T21:52:43.848Z,45.75
2018-11-05T21:55:13.101Z,48.92
2018-11-05T21:57:43.423Z,43.65
2018-11-05T22:00:17.358Z,53.75
2018-11-05T22:02:51.437Z,46.88
2018-11-05T22:05:20.996Z,55.67
2018-11-05T22:07:50.406Z,52.40
2018-11-05T22:10:20.198Z,52.75
2018-11-05T22:12:49.662Z,48.98
2018-11-05T22:15:18.998Z,50.38
2018-11-05T22:17:48.294Z,53.70
2018-11-05T22:20:17.612Z,51.20
2018-11-05T22:22:46.870Z,51.35
2018-11-05T22:25:16.058Z,49.13
2018-11-05T22:27:45.400Z,49.03
2018-11-05T22:30:15.222Z,47.50
2018-11-05T22:32:45.639Z,47.58
2018-11-05T22:35:15.171Z,53.48
2018-11-05T22:37:53.689Z,50.85
2018-11-05T22:40:24.904Z,49.58
2018-11-05T22:42:54.026Z,52.55
2018-11-05T22:45:24.341Z,51.18
2018-11-05T22:47:54.122Z,58.48
2018-11-05T22:50:23.254Z,57.58
2018-11-05T22:52:55.463Z,57.27
2018-11-05T22:55:26.047Z,56.08
2018-11-05T22:57:57.908Z,54.70
2018-11-05T23:00:35.135Z,58.45
2018-11-05T23:03:10.007Z,57.55
2018-11-05T23:05:45.207Z,56.35
2018-11-05T23:08:16.006Z,57.55
2018-11-05T23:10:52.307Z,59.15
2018-11-05T23:13:26.771Z,62.30
2018-11-05T23:15:55.955Z,64.32
2018-11-05T23:18:25.382Z,64.65
2018-11-05T23:20:55.271Z,57.75
2018-11-05T23:23:24.156Z,57.70
2018-11-05T23:25:53.662Z,62.15
2018-11-05T23:28:23.061Z,59.25
2018-11-05T23:30:53.271Z,62.08
2018-11-05T23:33:23.627Z,59.63
2018-11-05T23:35:54.489Z,56.88
2018-11-05T23:38:24.308Z,58.98
2018-11-05T23:40:54.889Z,60.95
2018-11-05T23:43:24.441Z,61.10
2018-11-05T23:45:54.390Z,58.20
2018-11-05T23:48:24.606Z,64.92
2018-11-05T23:50:55.963Z,60.15
2018-11-05T23:53:25.725Z,62.35
2018-11-05T23:55:56.153Z,56.30
2018-11-05T23:58:28.091Z,61.60
